createdAt,value
2018-09-25T00:02:01.874Z,100.00
2018-09-25T00:04:38.490Z,100.00
2018-09-25T00:07:12.829Z,100.00
2018-09-25T00:09:47.170Z,100.00
2018-09-25T00:12:21.555Z,100.00
2018-09-25T00:14:55.998Z,100.00
2018-09-25T00:17:30.402Z,100.00
2018-09-25T00:20:04.742Z,100.00
2018-09-25T00:22:39.033Z,100.00
2018-09-25T00:25:15.473Z,100.00
2018-09-25T00:27:49.778Z,100.00
2018-09-25T00:30:24.098Z,100.00
2018-09-25T00:32:58.409Z,100.00
2018-09-25T00:35:32.844Z,100.00
2018-09-25T00:38:06.870Z,100.00
2018-09-25T00:40:41.182Z,100.00
2018-09-25T00:43:16.301Z,100.00
2018-09-25T00:45:50.862Z,100.00
2018-09-25T00:48:25.187Z,100.00
2018-09-25T00:50:59.481Z,100.00
2018-09-25T00:53:33.778Z,100.00
2018-09-25T00:56:08.073Z,100.00
2018-09-25T00:58:42.561Z,100.00
2018-09-25T01:01:16.913Z,100.00
2018-09-25T01:03:51.225Z,100.00
2018-09-25T01:06:25.577Z,100.00
2018-09-25T01:08:59.919Z,100.00
2018-09-25T01:11:34.241Z,100.00
2018-09-25T01:14:09.157Z,100.00
2018-09-25T01:16:43.614Z,100.00
2018-09-25T01:19:18.064Z,100.00
2018-09-25T01:21:52.445Z,100.00
2018-09-25T01:24:26.825Z,100.00
2018-09-25T01:27:01.250Z,100.00
2018-09-25T01:29:38.942Z,100.00
2018-09-25T01:32:13.374Z,100.00
2018-09-25T01:34:47.946Z,100.00
2018-09-25T01:37:22.391Z,100.00
2018-09-25T01:39:58.867Z,100.00
2018-09-25T01:42:33.676Z,100.00
2018-09-25T01:45:08.474Z,100.00
2018-09-25T01:47:42.965Z,100.00
2018-09-25T01:50:17.358Z,100.00
2018-09-25T01:52:51.718Z,100.00
2018-09-25T01:55:26.094Z,100.00
2018-09-25T01:58:01.054Z,100.00
2018-09-25T02:00:35.433Z,100.00
2018-09-25T02:03:09.810Z,100.00
2018-09-25T02:05:44.162Z,100.00
2018-09-25T02:08:18.891Z,100.00
2018-09-25T02:10:53.201Z,100.00
2018-09-25T02:13:27.538Z,100.00
2018-09-25T02:16:01.862Z,100.00
2018-09-25T02:18:36.257Z,100.00
2018-09-25T02:21:10.541Z,100.00
2018-09-25T02:23:44.848Z,100.00
2018-09-25T02:26:19.105Z,100.00
2018-09-25T02:28:53.539Z,100.00
2018-09-25T02:31:28.313Z,100.00
2018-09-25T02:34:02.737Z,100.00
2018-09-25T02:36:37.163Z,100.00
2018-09-25T02:39:14.990Z,100.00
2018-09-25T02:41:49.591Z,100.00
2018-09-25T02:44:24.066Z,100.00
2018-09-25T02:46:58.597Z,100.00
2018-09-25T02:49:33.203Z,100.00
2018-09-25T02:52:07.995Z,100.00
2018-09-25T02:54:42.377Z,100.00
2018-09-25T02:57:17.673Z,100.00
2018-09-25T02:59:52.283Z,100.00
2018-09-25T03:02:27.165Z,100.00
2018-09-25T03:05:02.790Z,100.00
2018-09-25T03:07:36.798Z,100.00
2018-09-25T03:10:11.957Z,100.00
2018-09-25T03:12:46.282Z,100.00
2018-09-25T03:15:20.725Z,100.00
2018-09-25T03:17:55.037Z,100.00
2018-09-25T03:20:30.062Z,100.00
2018-09-25T03:23:04.511Z,100.00
2018-09-25T03:25:38.869Z,100.00
2018-09-25T03:28:13.181Z,100.00
2018-09-25T03:30:47.669Z,100.00
2018-09-25T03:33:21.929Z,100.00
2018-09-25T03:35:56.226Z,100.00
2018-09-25T03:38:30.539Z,100.00
2018-09-25T03:41:05.062Z,100.00
2018-09-25T03:43:39.482Z,100.00
2018-09-25T03:46:13.809Z,100.00
2018-09-25T03:48:48.182Z,100.00
2018-09-25T03:51:22.618Z,100.00
2018-09-25T03:53:56.893Z,100.00
2018-09-25T03:56:31.209Z,100.00
2018-09-25T03:59:05.518Z,100.00
2018-09-25T04:01:39.938Z,100.00
2018-09-25T04:04:14.253Z,100.00
2018-09-25T04:06:48.738Z,100.00
2018-09-25T04:09:23.171Z,100.00
2018-09-25T04:11:57.478Z,100.00
2018-09-25T04:14:31.926Z,100.00
2018-09-25T04:17:06.342Z,100.00
2018-09-25T04:19:41.702Z,100.00
2018-09-25T04:22:16.079Z,100.00
2018-09-25T04:24:50.659Z,100.00
2018-09-25T04:27:25.539Z,100.00
2018-09-25T04:29:59.855Z,100.00
2018-09-25T04:32:34.692Z,100.00
2018-09-25T04:35:09.502Z,100.00
2018-09-25T04:37:45.242Z,100.00
2018-09-25T04:40:19.587Z,100.00
2018-09-25T04:42:53.934Z,100.00
2018-09-25T04:45:28.205Z,100.00
2018-09-25T04:48:02.525Z,100.00
2018-09-25T04:50:36.849Z,100.00
2018-09-25T04:53:11.434Z,100.00
2018-09-25T04:55:45.883Z,100.00
2018-09-25T04:58:20.182Z,100.00
2018-09-25T05:00:54.599Z,100.00
2018-09-25T05:03:29.117Z,100.00
2018-09-25T05:06:03.485Z,100.00
2018-09-25T05:08:38.505Z,100.00
2018-09-25T05:11:13.061Z,100.00
2018-09-25T05:13:47.709Z,100.00
2018-09-25T05:16:22.906Z,100.00
2018-09-25T05:18:57.427Z,100.00
2018-09-25T05:21:31.724Z,100.00
2018-09-25T05:24:06.585Z,100.00
2018-09-25T05:26:41.378Z,100.00
2018-09-25T05:29:16.166Z,100.00
2018-09-25T05:31:51.405Z,100.00
2018-09-25T05:34:26.139Z,100.00
2018-09-25T05:37:01.629Z,100.00
2018-09-25T05:39:36.765Z,100.00
2018-09-25T05:42:11.086Z,100.00
2018-09-25T05:44:45.386Z,100.00
2018-09-25T05:47:19.778Z,100.00
2018-09-25T05:49:54.170Z,100.00
2018-09-25T05:52:28.481Z,100.00
2018-09-25T05:55:02.786Z,100.00
2018-09-25T05:57:37.093Z,100.00
2018-09-25T06:00:11.826Z,100.00
2018-09-25T06:02:46.263Z,100.00
2018-09-25T06:05:20.654Z,100.00
2018-09-25T06:07:54.954Z,100.00
2018-09-25T06:10:29.362Z,100.00
2018-09-25T06:13:03.645Z,100.00
2018-09-25T06:15:38.647Z,100.00
2018-09-25T06:18:12.912Z,100.00
2018-09-25T06:20:47.242Z,100.00
2018-09-25T06:23:21.529Z,100.00
2018-09-25T06:25:55.866Z,100.00
2018-09-25T06:28:30.129Z,100.00
2018-09-25T06:31:05.205Z,100.00
2018-09-25T06:33:39.677Z,100.00
2018-09-25T06:36:14.158Z,100.00
2018-09-25T06:38:48.438Z,100.00
2018-09-25T06:41:23.230Z,100.00
2018-09-25T06:43:57.842Z,100.00
2018-09-25T06:46:32.962Z,100.00
2018-09-25T06:49:07.379Z,100.00
2018-09-25T06:51:41.727Z,100.00
2018-09-25T06:54:16.744Z,100.00
2018-09-25T06:56:52.037Z,100.00
2018-09-25T06:59:26.372Z,94.10
2018-09-25T07:02:00.678Z,95.64
2018-09-25T07:04:35.095Z,96.14
2018-09-25T07:07:09.510Z,93.95
2018-09-25T07:09:44.111Z,92.13
2018-09-25T07:12:18.465Z,93.95
2018-09-25T07:14:52.769Z,85.69
2018-09-25T07:17:27.560Z,91.39
2018-09-25T07:20:01.897Z,80.38
2018-09-25T07:22:37.432Z,73.93
2018-09-25T07:25:12.841Z,70.11
2018-09-25T07:27:47.112Z,62.75
2018-09-25T07:30:21.448Z,63.77
2018-09-25T07:32:55.842Z,62.94
2018-09-25T07:35:30.178Z,62.40
2018-09-25T07:38:04.478Z,57.84
2018-09-25T07:40:38.771Z,53.79
2018-09-25T07:43:13.583Z,55.42
2018-09-25T07:45:48.587Z,50.65
2018-09-25T07:48:22.997Z,49.47
2018-09-25T07:50:57.382Z,44.68
2018-09-25T07:53:31.676Z,43.08
2018-09-25T07:56:05.981Z,49.73
2018-09-25T07:58:40.715Z,51.47
2018-09-25T08:01:15.329Z,49.39
2018-09-25T08:03:49.802Z,48.04
2018-09-25T08:06:24.282Z,49.66
2018-09-25T08:08:58.629Z,48.01
2018-09-25T08:11:32.967Z,47.24
2018-09-25T08:14:07.269Z,45.94
2018-09-25T08:16:41.714Z,45.97
2018-09-25T08:19:16.217Z,50.22
2018-09-25T08:21:50.974Z,53.15
2018-09-25T08:24:25.463Z,52.17
2018-09-25T08:27:00.005Z,48.53
2018-09-25T08:29:34.862Z,43.80
2018-09-25T08:32:09.910Z,43.93
2018-09-25T08:34:44.452Z,44.79
2018-09-25T08:37:19.598Z,45.67
2018-09-25T08:39:54.017Z,44.62
2018-09-25T08:42:28.332Z,44.74
2018-09-25T08:45:02.638Z,43.41
2018-09-25T08:47:37.009Z,44.94
2018-09-25T08:50:11.516Z,42.89
2018-09-25T08:52:45.966Z,47.44
2018-09-25T08:55:20.362Z,43.51
2018-09-25T08:57:54.650Z,41.79
2018-09-25T09:00:28.987Z,36.42
2018-09-25T09:03:03.367Z,36.86
2018-09-25T09:05:38.006Z,31.01
2018-09-25T09:08:12.077Z,33.74
2018-09-25T09:10:46.488Z,32.68
2018-09-25T09:13:20.857Z,38.05
2018-09-25T09:15:55.143Z,35.77
2018-09-25T09:18:29.454Z,35.71
2018-09-25T09:21:03.758Z,33.94
2018-09-25T09:23:38.094Z,36.57
2018-09-25T09:26:13.072Z,38.59
2018-09-25T09:28:47.431Z,38.57
2018-09-25T09:31:21.765Z,39.45
2018-09-25T09:33:56.666Z,38.58
2018-09-25T09:36:31.629Z,33.67
2018-09-25T09:39:05.950Z,28.89
2018-09-25T09:41:40.494Z,28.54
2018-09-25T09:44:14.660Z,24.70
2018-09-25T09:46:49.173Z,27.09
2018-09-25T09:49:23.503Z,26.31
2018-09-25T09:51:57.859Z,29.52
2018-09-25T09:54:35.429Z,26.90
2018-09-25T09:57:09.769Z,26.77
2018-09-25T09:59:44.097Z,25.17
2018-09-25T10:02:18.549Z,25.66
2018-09-25T10:04:52.931Z,24.57
2018-09-25T10:07:27.390Z,29.77
2018-09-25T10:10:01.958Z,26.78
2018-09-25T10:12:36.490Z,26.68
2018-09-25T10:15:11.778Z,27.41
2018-09-25T10:17:46.295Z,26.15
2018-09-25T10:20:20.642Z,22.84
2018-09-25T10:22:55.081Z,19.08
2018-09-25T10:25:29.998Z,18.73
2018-09-25T10:28:04.943Z,16.72
2018-09-25T10:30:39.386Z,14.55
2018-09-25T10:33:13.682Z,14.69
2018-09-25T10:35:48.049Z,20.21
2018-09-25T10:38:22.393Z,16.84
2018-09-25T10:40:56.862Z,19.78
2018-09-25T10:43:31.423Z,22.22
2018-09-25T10:46:05.836Z,22.53
2018-09-25T10:48:40.258Z,22.45
2018-09-25T10:51:14.581Z,22.49
2018-09-25T10:53:49.150Z,20.45
2018-09-25T10:56:23.433Z,24.56
2018-09-25T10:58:57.967Z,23.12
2018-09-25T11:01:33.130Z,20.56
2018-09-25T11:04:07.727Z,19.67
2018-09-25T11:06:42.263Z,19.30
2018-09-25T11:09:16.575Z,19.46
2018-09-25T11:11:51.503Z,19.01
2018-09-25T11:14:25.857Z,21.58
2018-09-25T11:17:00.246Z,24.53
2018-09-25T11:19:34.665Z,24.16
2018-09-25T11:22:09.977Z,22.44
2018-09-25T11:24:44.406Z,24.64
2018-09-25T11:27:18.839Z,20.58
2018-09-25T11:29:54.396Z,21.70
2018-09-25T11:32:28.710Z,21.53
2018-09-25T11:35:03.021Z,18.49
2018-09-25T11:37:37.982Z,20.88
2018-09-25T11:40:12.407Z,18.35
2018-09-25T11:42:46.709Z,17.65
2018-09-25T11:45:21.234Z,16.71
2018-09-25T11:47:56.237Z,17.11
2018-09-25T11:50:30.567Z,18.26
2018-09-25T11:53:05.538Z,20.65
2018-09-25T11:55:39.850Z,19.96
2018-09-25T11:58:14.353Z,20.94
2018-09-25T12:00:48.654Z,19.43
2018-09-25T12:03:22.952Z,21.47
2018-09-25T12:05:57.246Z,22.05
2018-09-25T12:08:31.531Z,22.99
2018-09-25T12:11:06.077Z,21.01
2018-09-25T12:13:41.663Z,19.07
2018-09-25T12:16:15.992Z,17.87
2018-09-25T12:18:50.389Z,18.31
2018-09-25T12:21:24.845Z,18.66
2018-09-25T12:23:59.252Z,20.14
2018-09-25T12:26:33.828Z,21.94
2018-09-25T12:29:08.213Z,20.95
2018-09-25T12:31:43.397Z,21.60
2018-09-25T12:34:17.701Z,22.77
2018-09-25T12:36:51.982Z,22.43
2018-09-25T12:39:26.304Z,24.31
2018-09-25T12:42:00.632Z,26.59
2018-09-25T12:44:34.924Z,31.58
2018-09-25T12:47:09.238Z,32.56
2018-09-25T12:49:44.133Z,33.62
2018-09-25T12:52:18.481Z,35.67
2018-09-25T12:54:52.831Z,36.37
2018-09-25T12:57:27.174Z,36.41
2018-09-25T13:00:01.466Z,36.48
2018-09-25T13:02:35.815Z,35.37
2018-09-25T13:05:10.533Z,35.96
2018-09-25T13:07:44.926Z,35.33
2018-09-25T13:10:19.278Z,35.32
2018-09-25T13:12:53.773Z,35.60
2018-09-25T13:15:28.618Z,35.57
2018-09-25T13:18:02.983Z,33.20
2018-09-25T13:20:38.142Z,30.75
2018-09-25T13:23:12.518Z,28.29
2018-09-25T13:25:47.959Z,26.33
2018-09-25T13:28:22.328Z,24.92
2018-09-25T13:30:56.735Z,23.76
2018-09-25T13:33:31.271Z,24.61
2018-09-25T13:36:06.254Z,23.78
2018-09-25T13:38:41.105Z,25.25
2018-09-25T13:41:15.961Z,22.95
2018-09-25T13:43:50.255Z,21.74
2018-09-25T13:46:25.818Z,21.16
2018-09-25T13:49:00.135Z,22.25
2018-09-25T13:51:34.425Z,21.74
2018-09-25T13:54:09.249Z,22.61
2018-09-25T13:56:43.567Z,23.75
2018-09-25T13:59:17.931Z,24.35
2018-09-25T14:01:52.314Z,22.14
2018-09-25T14:04:26.583Z,22.36
2018-09-25T14:07:01.587Z,23.96
2018-09-25T14:09:36.154Z,27.28
2018-09-25T14:12:10.415Z,32.25
2018-09-25T14:14:45.583Z,33.78
2018-09-25T14:17:20.383Z,34.81
2018-09-25T14:19:55.104Z,34.90
2018-09-25T14:22:29.553Z,35.13
2018-09-25T14:25:04.009Z,36.31
2018-09-25T14:27:38.456Z,37.05
2018-09-25T14:30:13.352Z,36.45
2018-09-25T14:32:47.902Z,36.52
2018-09-25T14:35:22.406Z,36.57
2018-09-25T14:37:56.920Z,35.94
2018-09-25T14:40:31.205Z,36.10
2018-09-25T14:43:05.583Z,36.84
2018-09-25T14:45:40.204Z,36.19
2018-09-25T14:48:14.626Z,35.93
2018-09-25T14:50:49.053Z,34.96
2018-09-25T14:53:23.386Z,35.26
2018-09-25T14:55:58.178Z,35.08
2018-09-25T14:58:32.719Z,35.95
2018-09-25T15:01:07.437Z,36.67
2018-09-25T15:03:41.717Z,36.35
2018-09-25T15:06:16.034Z,36.96
2018-09-25T15:08:50.328Z,35.94
2018-09-25T15:11:24.753Z,36.47
2018-09-25T15:13:59.035Z,36.08
2018-09-25T15:16:33.531Z,35.45
2018-09-25T15:19:08.855Z,36.49
2018-09-25T15:21:43.341Z,36.18
2018-09-25T15:24:17.628Z,35.97
2018-09-25T15:26:51.939Z,35.96
2018-09-25T15:29:26.458Z,35.92
2018-09-25T15:32:00.822Z,35.73
2018-09-25T15:34:35.198Z,35.99
2018-09-25T15:37:10.466Z,36.11
2018-09-25T15:39:46.057Z,36.54
2018-09-25T15:42:20.859Z,35.95
2018-09-25T15:44:55.026Z,36.75
2018-09-25T15:47:30.491Z,36.91
2018-09-25T15:50:05.226Z,37.19
2018-09-25T15:52:39.430Z,37.96
2018-09-25T15:55:15.920Z,37.58
2018-09-25T15:57:50.502Z,38.15
2018-09-25T16:00:24.974Z,37.94
2018-09-25T16:03:01.736Z,38.38
2018-09-25T16:05:36.540Z,38.72
2018-09-25T16:08:12.319Z,38.88
2018-09-25T16:10:48.246Z,38.51
2018-09-25T16:13:22.838Z,38.49
2018-09-25T16:15:57.283Z,38.31
2018-09-25T16:18:32.184Z,37.58
2018-09-25T16:21:06.644Z,38.71
2018-09-25T16:23:41.205Z,39.11
2018-09-25T16:26:16.392Z,39.64
2018-09-25T16:28:50.892Z,39.86
2018-09-25T16:31:25.228Z,41.15
2018-09-25T16:33:59.538Z,41.32
2018-09-25T16:36:33.943Z,40.95
2018-09-25T16:39:08.237Z,42.29
2018-09-25T16:41:42.626Z,41.71
2018-09-25T16:44:16.946Z,41.57
2018-09-25T16:46:51.425Z,42.20
2018-09-25T16:49:26.242Z,43.39
2018-09-25T16:52:01.917Z,42.53
2018-09-25T16:54:36.221Z,43.18
2018-09-25T16:57:10.971Z,43.20
2018-09-25T16:59:45.473Z,43.23
2018-09-25T17:02:19.761Z,43.94
2018-09-25T17:04:55.205Z,44.35
2018-09-25T17:07:29.482Z,46.11
2018-09-25T17:10:03.802Z,46.69
2018-09-25T17:12:38.114Z,47.63
2018-09-25T17:15:12.443Z,47.59
2018-09-25T17:17:47.783Z,48.35
2018-09-25T17:20:22.307Z,49.50
2018-09-25T17:22:56.744Z,47.85
2018-09-25T17:25:31.166Z,48.11
2018-09-25T17:28:05.641Z,49.20
2018-09-25T17:30:40.069Z,49.52
2018-09-25T17:33:14.453Z,51.08
2018-09-25T17:35:48.874Z,49.79
2018-09-25T17:38:23.198Z,51.02
2018-09-25T17:40:57.574Z,50.64
2018-09-25T17:43:33.018Z,51.58
2018-09-25T17:46:07.346Z,52.10
2018-09-25T17:48:41.896Z,52.27
2018-09-25T17:51:16.170Z,52.51
2018-09-25T17:53:50.522Z,52.80
2018-09-25T17:56:26.093Z,51.48
2018-09-25T17:59:01.770Z,52.25
2018-09-25T18:01:36.582Z,52.54
2018-09-25T18:04:10.838Z,54.70
2018-09-25T18:06:45.225Z,53.83
2018-09-25T18:09:19.567Z,54.08
2018-09-25T18:11:53.913Z,55.10
2018-09-25T18:14:28.326Z,53.63
2018-09-25T18:17:02.693Z,53.77
2018-09-25T18:19:37.167Z,54.10
2018-09-25T18:22:11.691Z,54.62
2018-09-25T18:24:46.010Z,55.99
2018-09-25T18:27:20.350Z,55.92
2018-09-25T18:29:54.682Z,56.55
2018-09-25T18:32:28.975Z,56.42
2018-09-25T18:35:04.777Z,55.95
2018-09-25T18:37:39.929Z,58.87
2018-09-25T18:40:14.390Z,60.55
2018-09-25T18:42:48.830Z,59.99
2018-09-25T18:45:23.366Z,59.96
2018-09-25T18:47:57.646Z,60.53
2018-09-25T18:50:32.174Z,58.84
2018-09-25T18:53:06.706Z,56.71
2018-09-25T18:55:41.067Z,59.29
2018-09-25T18:58:15.583Z,58.49
2018-09-25T19:00:50.076Z,57.22
2018-09-25T19:03:24.523Z,57.02
2018-09-25T19:05:58.966Z,58.40
2018-09-25T19:08:33.346Z,59.47
2018-09-25T19:11:14.243Z,60.35
2018-09-25T19:13:48.661Z,60.07
2018-09-25T19:16:23.079Z,60.70
2018-09-25T19:18:57.779Z,62.32
2018-09-25T19:21:32.828Z,62.48
2018-09-25T19:24:07.262Z,61.20
2018-09-25T19:26:41.722Z,61.84
2018-09-25T19:29:16.251Z,61.90
2018-09-25T19:31:50.662Z,62.73
2018-09-25T19:34:25.083Z,63.08
2018-09-25T19:36:59.414Z,62.49
2018-09-25T19:39:33.729Z,63.11
2018-09-25T19:42:09.490Z,63.85
2018-09-25T19:44:43.868Z,64.11
2018-09-25T19:47:18.220Z,65.81
2018-09-25T19:49:52.688Z,66.98
2018-09-25T19:52:27.143Z,66.89
2018-09-25T19:55:01.494Z,66.78
2018-09-25T19:57:35.847Z,67.59
2018-09-25T20:00:10.322Z,66.91
2018-09-25T20:02:44.681Z,66.98
2018-09-25T20:05:19.038Z,70.32
2018-09-25T20:07:53.995Z,69.12
2018-09-25T20:10:28.518Z,69.21
2018-09-25T20:13:02.925Z,69.60
2018-09-25T20:15:37.225Z,69.80
2018-09-25T20:18:11.521Z,69.10
2018-09-25T20:20:45.925Z,69.01
2018-09-25T20:23:20.602Z,71.01
2018-09-25T20:25:55.366Z,73.40
2018-09-25T20:28:29.711Z,75.20
2018-09-25T20:31:04.230Z,75.66
2018-09-25T20:33:38.911Z,75.23
2018-09-25T20:36:13.486Z,75.65
2018-09-25T20:38:47.973Z,75.35
2018-09-25T20:41:22.303Z,74.89
2018-09-25T20:43:56.753Z,76.01
2018-09-25T20:46:31.053Z,76.88
2018-09-25T20:49:05.467Z,76.69
2018-09-25T20:51:39.926Z,75.70
2018-09-25T20:54:14.327Z,76.36
2018-09-25T20:56:48.604Z,76.01
2018-09-25T20:59:23.634Z,75.91
2018-09-25T21:01:58.003Z,77.55
2018-09-25T21:04:32.305Z,79.52
2018-09-25T21:07:06.573Z,79.74
2018-09-25T21:09:40.903Z,78.92
2018-09-25T21:12:15.215Z,78.82
2018-09-25T21:14:49.706Z,79.64
2018-09-25T21:17:24.059Z,80.89
2018-09-25T21:19:58.538Z,82.36
2018-09-25T21:22:33.002Z,83.76
2018-09-25T21:25:08.054Z,85.33
2018-09-25T21:27:42.590Z,85.79
2018-09-25T21:30:17.460Z,86.42
2018-09-25T21:32:52.074Z,87.15
2018-09-25T21:35:26.604Z,87.51
2018-09-25T21:38:01.520Z,87.04
2018-09-25T21:40:35.811Z,87.29
2018-09-25T21:43:10.510Z,87.12
2018-09-25T21:45:45.102Z,87.54
2018-09-25T21:48:19.901Z,86.84
2018-09-25T21:50:54.296Z,87.14
2018-09-25T21:53:28.269Z,87.49
2018-09-25T21:56:02.752Z,87.73
2018-09-25T21:58:37.065Z,88.29
2018-09-25T22:01:11.362Z,89.92
2018-09-25T22:03:45.726Z,89.42
2018-09-25T22:06:19.989Z,88.87
2018-09-25T22:08:54.329Z,88.68
2018-09-25T22:11:30.184Z,88.07
2018-09-25T22:14:05.209Z,87.82
2018-09-25T22:16:39.870Z,87.82
2018-09-25T22:19:14.638Z,87.45
2018-09-25T22:21:50.520Z,86.00
2018-09-25T22:24:25.362Z,85.36
2018-09-25T22:27:01.846Z,84.77
2018-09-25T22:29:36.602Z,84.71
2018-09-25T22:32:12.074Z,84.52
2018-09-25T22:34:47.692Z,83.30
2018-09-25T22:37:23.590Z,83.90
2018-09-25T22:39:58.406Z,83.96
2018-09-25T22:42:33.300Z,84.11
2018-09-25T22:45:08.103Z,84.22
2018-09-25T22:47:42.837Z,84.45
2018-09-25T22:50:17.773Z,86.37
2018-09-25T22:52:52.757Z,85.27
2018-09-25T22:55:27.085Z,87.47
2018-09-25T22:58:09.550Z,87.56
2018-09-25T23:00:43.957Z,87.81
2018-09-25T23:03:18.346Z,86.45
2018-09-25T23:05:52.881Z,85.98
2018-09-25T23:08:27.047Z,88.14
2018-09-25T23:11:01.496Z,89.46
2018-09-25T23:13:35.896Z,87.64
2018-09-25T23:16:10.359Z,86.14
2018-09-25T23:18:44.879Z,85.55
2018-09-25T23:21:19.277Z,85.72
2018-09-25T23:23:53.794Z,84.61
2018-09-25T23:26:28.217Z,86.36
2018-09-25T23:29:02.533Z,87.36
2018-09-25T23:31:36.921Z,89.41
2018-09-25T23:34:12.143Z,89.52
2018-09-25T23:36:46.488Z,90.08
2018-09-25T23:39:19.689Z,90.34
2018-09-25T23:41:58.103Z,90.79
2018-09-25T23:44:32.396Z,90.36
2018-09-25T23:47:05.578Z,90.91
2018-09-25T23:49:42.010Z,91.81
2018-09-25T23:52:19.695Z,92.25
2018-09-25T23:54:53.588Z,92.51
2018-09-25T23:57:25.887Z,92.66
